Celilo, Oregon
Current Conditions -  °F | °C
As of 2:53 AM on Friday 28 Nov 2014 (Local Time) from KDLS Reporting Station
Light Rain Light Rain  
Wind Chill: 50°   Ceiling: 5000
Heat Index: 50°   Visibility: 10mi
Dew Point: 48°   Wind: 3mph
Humidity: 93%   Direction: 240°WSW
Pressure: 29.73"   Gusts: NA
Location:  45.5517°N, 121.219°W
Report Text: KDLS 281053Z AUTO 24003KT 10SM -RA BKN050 OVC075 10/09 A2973 RMK AO2 RAB01 SLP069 P0003 T01000089
Loading
Personal Weather Stations






























Interactive Weather Map New forecast layout! Learn more

10-Day Weather Forecast

Advertisements
Track Severe Weather on mobile